Time;durP1;ratioP1;P1;durP2;ratioP2;P2;SDS_P1;SDS_P2;PMS_P1;PMS_P2;Temp;Humidity;BMP_temperature;BMP_pressure;BME280_temperature;BME280_humidity;BME280_pressure;Samples;Min_cycle;Max_cycle;Signal;HPM_P1;HPM_P2
2022/03/25 00:00:25;;;;;;;11.60;6.03;;;6.00;99.90;;;;;;6340848;28;20270;-80
2022/03/25 00:03:30;;;;;;;7.23;5.80;;;6.00;99.90;;;;;;6339970;28;20295;-79
2022/03/25 00:06:37;;;;;;;12.57;6.30;;;5.90;99.90;;;;;;6323513;28;20278;-80
2022/03/25 00:09:43;;;;;;;7.83;6.33;;;6.00;99.90;;;;;;6321978;28;20316;-79
2022/03/25 00:12:49;;;;;;;16.17;8.20;;;5.90;99.90;;;;;;6322473;28;20294;-79
2022/03/25 00:15:54;;;;;;;9.50;6.40;;;5.90;99.90;;;;;;6340616;28;20273;-79
2022/03/25 00:18:59;;;;;;;8.77;6.33;;;5.90;99.90;;;;;;6321564;28;20301;-79
2022/03/25 00:22:07;;;;;;;10.30;6.67;;;5.80;99.90;;;;;;6339281;28;20466;-79
2022/03/25 00:25:12;;;;;;;12.13;6.10;;;5.80;99.90;;;;;;6340288;28;20309;-79
2022/03/25 00:28:19;;;;;;;13.03;6.30;;;5.80;99.90;;;;;;6339345;28;20300;-79
2022/03/25 00:31:24;;;;;;;14.93;6.07;;;5.80;99.90;;;;;;6322414;28;20273;-79
2022/03/25 00:34:30;;;;;;;14.63;6.67;;;5.80;99.90;;;;;;6339340;28;20482;-79
2022/03/25 00:37:37;;;;;;;11.27;6.83;;;5.70;99.90;;;;;;6338243;28;20292;-79
2022/03/25 00:40:44;;;;;;;12.07;6.57;;;5.80;99.90;;;;;;6321836;28;20583;-79
2022/03/25 00:43:49;;;;;;;11.43;6.70;;;5.70;99.90;;;;;;6304251;28;20301;-79
2022/03/25 00:46:55;;;;;;;12.93;7.00;;;5.70;99.90;;;;;;6339525;28;20423;-79
2022/03/25 00:50:00;;;;;;;11.33;6.70;;;5.70;99.90;;;;;;6338378;28;20280;-79
2022/03/25 00:53:08;;;;;;;14.13;7.03;;;5.70;99.90;;;;;;6338815;28;20297;-79
2022/03/25 00:56:14;;;;;;;9.77;6.57;;;5.70;99.90;;;;;;6321609;28;20277;-79
2022/03/25 00:59:20;;;;;;;8.17;6.43;;;5.80;99.90;;;;;;6337623;28;20293;-79
2022/03/25 01:02:26;;;;;;;10.97;6.80;;;5.70;99.90;;;;;;6320705;28;20285;-79
2022/03/25 01:05:33;;;;;;;12.87;6.73;;;5.70;99.90;;;;;;6337974;28;20296;-79
2022/03/25 01:08:40;;;;;;;10.53;6.60;;;5.60;99.90;;;;;;6339388;28;20294;-79
2022/03/25 01:11:46;;;;;;;8.43;6.50;;;5.60;99.90;;;;;;6321013;28;20264;-79
2022/03/25 01:14:51;;;;;;;10.00;6.63;;;5.40;99.90;;;;;;6320645;28;20300;-79
2022/03/25 01:17:57;;;;;;;9.57;6.93;;;5.40;99.90;;;;;;6338794;28;20289;-79
2022/03/25 01:21:02;;;;;;;14.37;7.17;;;5.50;99.90;;;;;;6320633;28;20584;-79
2022/03/25 01:24:09;;;;;;;9.23;6.97;;;5.40;99.90;;;;;;6338503;28;20301;-79
2022/03/25 01:27:15;;;;;;;12.90;7.30;;;5.40;99.90;;;;;;6320330;28;20573;-79
2022/03/25 01:30:20;;;;;;;11.73;7.07;;;5.40;99.90;;;;;;6339109;28;20281;-79
2022/03/25 01:33:28;;;;;;;8.43;6.83;;;5.30;99.90;;;;;;6319835;28;20297;-79
2022/03/25 01:36:34;;;;;;;13.40;7.00;;;5.30;99.90;;;;;;6321404;28;20276;-79
2022/03/25 01:39:41;;;;;;;12.57;7.03;;;5.50;99.90;;;;;;6337941;28;20579;-79
2022/03/25 01:42:47;;;;;;;10.47;6.90;;;5.50;99.90;;;;;;6337953;28;20304;-79
2022/03/25 01:45:52;;;;;;;15.07;7.30;;;5.50;99.90;;;;;;6338647;28;20296;-79
2022/03/25 01:48:58;;;;;;;11.17;6.63;;;5.40;99.90;;;;;;6320170;28;20336;-79
2022/03/25 01:52:05;;;;;;;13.90;7.07;;;5.30;99.90;;;;;;6319931;28;20265;-79
2022/03/25 01:55:18;;;;;;;15.10;8.10;;;5.30;99.90;;;;;;6304232;28;20551;-79
2022/03/25 01:58:25;;;;;;;12.10;7.13;;;5.30;99.90;;;;;;6336759;28;20303;-79
2022/03/25 02:01:31;;;;;;;14.33;7.90;;;5.30;99.90;;;;;;6338513;28;20272;-79
2022/03/25 02:04:37;;;;;;;12.37;7.10;;;5.30;99.90;;;;;;6337979;28;20293;-79
2022/03/25 02:07:43;;;;;;;8.80;7.37;;;5.30;99.90;;;;;;6319638;28;20466;-79
2022/03/25 02:10:51;;;;;;;8.57;7.23;;;5.30;99.90;;;;;;6320241;28;20268;-79
2022/03/25 02:13:59;;;;;;;9.90;7.30;;;5.30;99.90;;;;;;6319944;28;20285;-79
2022/03/25 02:17:05;;;;;;;11.13;7.93;;;5.30;99.90;;;;;;6336863;28;20272;-79
2022/03/25 02:20:14;;;;;;;10.20;7.33;;;5.30;99.90;;;;;;6336901;28;20304;-79
2022/03/25 02:23:23;;;;;;;10.67;7.53;;;5.20;99.90;;;;;;6320437;28;20341;-79
2022/03/25 02:26:29;;;;;;;21.97;8.17;;;5.30;99.90;;;;;;6320355;28;20296;-79
2022/03/25 02:29:37;;;;;;;12.30;7.27;;;5.30;99.90;;;;;;6336707;28;20439;-79
2022/03/25 02:32:42;;;;;;;14.40;7.77;;;5.30;99.90;;;;;;6319564;28;20312;-79
2022/03/25 02:35:51;;;;;;;12.47;7.73;;;5.30;99.90;;;;;;6337653;28;20332;-79
2022/03/25 02:38:59;;;;;;;12.10;8.00;;;5.30;99.90;;;;;;6338166;28;20295;-79
2022/03/25 02:42:10;;;;;;;15.33;8.20;;;5.20;99.90;;;;;;6336142;28;20264;-78
2022/03/25 02:45:22;;;;;;;16.33;8.80;;;5.30;99.90;;;;;;6339988;28;20292;-78
2022/03/25 02:48:28;;;;;;;11.87;7.83;;;5.20;99.90;;;;;;6324633;28;20493;-79
2022/03/25 02:51:33;;;;;;;12.23;7.67;;;5.20;99.90;;;;;;6341621;28;20276;-79
2022/03/25 02:54:41;;;;;;;11.47;7.10;;;5.20;99.90;;;;;;6344647;28;20296;-81
2022/03/25 02:57:46;;;;;;;14.13;7.83;;;5.20;99.90;;;;;;6344380;28;20304;-79
2022/03/25 03:00:51;;;;;;;15.10;7.80;;;5.20;99.90;;;;;;6345730;28;20273;-79
2022/03/25 03:03:56;;;;;;;9.77;7.93;;;5.20;99.90;;;;;;6345126;28;20301;-79
2022/03/25 03:07:01;;;;;;;10.20;7.30;;;5.20;99.90;;;;;;6326225;28;20288;-79
2022/03/25 03:10:10;;;;;;;11.97;8.10;;;5.10;99.90;;;;;;6345727;28;20272;-79
2022/03/25 03:13:17;;;;;;;19.03;8.47;;;5.20;99.90;;;;;;6328272;28;20289;-79
2022/03/25 03:16:22;;;;;;;11.40;7.87;;;5.20;99.90;;;;;;6347615;28;20275;-78
2022/03/25 03:19:28;;;;;;;18.20;8.50;;;5.20;99.90;;;;;;6346435;28;20312;-78
2022/03/25 03:22:33;;;;;;;16.90;8.87;;;5.10;99.90;;;;;;6346695;28;20296;-78
2022/03/25 03:25:40;;;;;;;19.57;8.23;;;5.10;99.90;;;;;;6346621;28;20262;-78
2022/03/25 03:28:46;;;;;;;12.07;8.33;;;5.10;99.90;;;;;;6328588;28;20295;-78
2022/03/25 03:31:52;;;;;;;10.17;7.90;;;5.10;99.90;;;;;;6324100;28;20276;-79
2022/03/25 03:34:58;;;;;;;16.97;7.67;;;5.00;99.90;;;;;;6340792;28;20271;-79
2022/03/25 03:38:04;;;;;;;20.83;8.40;;;5.10;99.90;;;;;;6340128;28;20390;-78
2022/03/25 03:41:12;;;;;;;14.00;8.23;;;5.10;99.90;;;;;;6323164;28;20451;-78
2022/03/25 03:44:19;;;;;;;16.67;8.10;;;5.10;99.90;;;;;;6339946;28;20296;-80
2022/03/25 03:47:25;;;;;;;13.30;8.17;;;5.10;99.90;;;;;;6339292;28;20298;-79
2022/03/25 03:50:29;;;;;;;16.80;8.17;;;5.00;99.90;;;;;;6340426;28;20273;-78
2022/03/25 03:53:34;;;;;;;14.03;8.93;;;5.10;99.90;;;;;;6340019;28;20297;-80
2022/03/25 03:56:42;;;;;;;13.50;8.00;;;5.10;99.90;;;;;;6340591;28;20277;-79
2022/03/25 03:59:47;;;;;;;16.83;9.07;;;5.10;99.90;;;;;;6321644;28;20292;-80
2022/03/25 04:02:54;;;;;;;10.33;8.10;;;5.10;99.90;;;;;;6339709;28;20292;-78
2022/03/25 04:06:01;;;;;;;11.03;7.70;;;5.10;99.90;;;;;;6340334;28;20270;-78
2022/03/25 04:09:07;;;;;;;12.20;7.93;;;5.10;99.90;;;;;;6338764;28;20296;-78
2022/03/25 04:12:17;;;;;;;15.53;8.07;;;5.10;99.90;;;;;;6339190;28;20263;-78
2022/03/25 04:15:22;;;;;;;11.93;7.90;;;5.10;99.90;;;;;;6323100;28;20275;-79
2022/03/25 04:18:27;;;;;;;11.50;7.37;;;5.10;99.90;;;;;;6339159;28;20599;-78
2022/03/25 04:21:32;;;;;;;13.77;7.93;;;5.10;99.90;;;;;;6340069;28;20302;-78
2022/03/25 04:24:38;;;;;;;15.10;7.97;;;5.10;99.90;;;;;;6338945;28;20583;-78
2022/03/25 04:27:50;;;;;;;11.90;8.17;;;5.10;99.90;;;;;;6337614;28;20289;-78
2022/03/25 04:30:55;;;;;;;13.33;8.37;;;5.10;99.90;;;;;;6339162;28;20270;-78
2022/03/25 04:34:00;;;;;;;11.27;8.00;;;5.10;99.90;;;;;;6338962;28;20296;-78
2022/03/25 04:37:07;;;;;;;12.30;7.60;;;5.10;99.90;;;;;;6339842;28;20461;-78
2022/03/25 04:40:17;;;;;;;14.00;8.33;;;5.10;99.90;;;;;;6339871;28;20265;-79
2022/03/25 04:43:27;;;;;;;13.07;7.77;;;5.10;99.90;;;;;;6339981;28;20300;-78
2022/03/25 04:46:34;;;;;;;15.50;8.03;;;5.10;99.90;;;;;;6340542;28;20293;-78
2022/03/25 04:49:39;;;;;;;16.20;8.23;;;5.10;99.90;;;;;;6339023;28;20300;-79
2022/03/25 04:52:44;;;;;;;11.87;7.57;;;5.10;99.90;;;;;;6339323;28;20288;-79
2022/03/25 04:55:53;;;;;;;10.23;7.97;;;5.10;99.90;;;;;;6339452;28;20275;-78
2022/03/25 04:59:00;;;;;;;12.17;8.47;;;5.10;99.90;;;;;;6339232;28;20294;-79
2022/03/25 05:02:05;;;;;;;15.83;8.93;;;5.10;99.90;;;;;;6338475;28;20264;-78
2022/03/25 05:05:13;;;;;;;12.07;8.33;;;5.10;99.90;;;;;;6339178;28;20271;-78
2022/03/25 05:08:19;;;;;;;15.83;7.87;;;5.10;99.90;;;;;;6338029;28;20569;-78
2022/03/25 05:11:24;;;;;;;10.93;7.87;;;5.20;99.90;;;;;;6321791;28;20268;-79
2022/03/25 05:14:31;;;;;;;14.13;7.90;;;5.10;99.90;;;;;;6339364;28;20307;-79
2022/03/25 05:17:43;;;;;;;13.10;8.63;;;5.20;99.90;;;;;;6322077;28;20296;-79
2022/03/25 05:20:48;;;;;;;11.07;8.50;;;5.20;99.90;;;;;;6322487;28;20297;-78
2022/03/25 05:23:53;;;;;;;13.00;8.33;;;5.30;99.90;;;;;;6339049;28;20391;-79
2022/03/25 05:26:59;;;;;;;18.03;8.40;;;5.30;99.90;;;;;;6339728;28;20268;-79
2022/03/25 05:30:10;;;;;;;17.73;8.73;;;5.40;99.90;;;;;;6340118;28;20554;-79
2022/03/25 05:33:19;;;;;;;16.47;8.30;;;5.40;99.90;;;;;;6320287;28;20312;-78
2022/03/25 05:36:25;;;;;;;11.30;8.27;;;5.50;99.90;;;;;;6338920;28;20275;-78
2022/03/25 05:39:31;;;;;;;16.87;8.53;;;5.50;99.90;;;;;;6338166;28;20599;-78
2022/03/25 05:42:37;;;;;;;16.37;8.20;;;5.60;99.90;;;;;;6338520;28;20281;-79
2022/03/25 05:45:44;;;;;;;16.67;8.00;;;5.60;99.90;;;;;;6338487;28;20272;-79
2022/03/25 05:48:50;;;;;;;13.33;7.90;;;5.60;99.90;;;;;;6338620;28;20300;-78
2022/03/25 05:51:56;;;;;;;10.77;8.00;;;5.70;99.90;;;;;;6338520;28;20268;-78
2022/03/25 05:55:01;;;;;;;16.73;8.27;;;5.70;99.90;;;;;;6337862;28;20281;-79
2022/03/25 05:58:11;;;;;;;16.80;9.00;;;5.80;99.90;;;;;;6338249;28;20304;-79
2022/03/25 06:01:18;;;;;;;15.10;7.47;;;5.80;99.90;;;;;;6339204;28;20269;-79
2022/03/25 06:04:23;;;;;;;16.23;8.70;;;5.70;99.90;;;;;;6338631;28;20296;-79
2022/03/25 06:07:36;;;;;;;17.20;8.27;;;5.80;99.90;;;;;;6338404;28;20462;-79
2022/03/25 06:10:41;;;;;;;9.97;7.67;;;5.90;99.90;;;;;;6338598;28;20262;-79
2022/03/25 06:13:46;;;;;;;14.73;8.20;;;5.90;99.90;;;;;;6338385;28;20493;-80
2022/03/25 06:16:53;;;;;;;14.50;8.40;;;6.00;99.90;;;;;;6339095;28;20269;-80
2022/03/25 06:19:59;;;;;;;17.57;8.43;;;6.00;99.90;;;;;;6339791;28;20297;-78
2022/03/25 06:23:05;;;;;;;18.37;8.27;;;6.10;99.90;;;;;;6342874;28;20292;-79
2022/03/25 06:26:11;;;;;;;12.37;8.53;;;6.00;99.90;;;;;;6342706;28;20328;-79
2022/03/25 06:29:17;;;;;;;12.40;8.40;;;6.10;99.90;;;;;;6340997;28;20301;-79
2022/03/25 06:32:24;;;;;;;15.10;7.83;;;6.10;99.90;;;;;;6339029;28;20308;-81
2022/03/25 06:35:30;;;;;;;15.57;8.80;;;6.10;99.90;;;;;;6339157;28;20297;-80
2022/03/25 06:38:41;;;;;;;12.23;7.97;;;6.20;99.90;;;;;;6339242;28;20281;-80
2022/03/25 06:41:46;;;;;;;19.43;8.33;;;6.30;99.90;;;;;;6320962;28;20296;-78
2022/03/25 06:44:51;;;;;;;13.03;7.87;;;6.30;99.90;;;;;;6338599;28;20564;-79
2022/03/25 06:47:58;;;;;;;15.00;7.93;;;6.40;99.90;;;;;;6338336;28;20293;-78
2022/03/25 06:51:05;;;;;;;12.30;8.23;;;6.50;99.90;;;;;;6338883;28;20291;-80
2022/03/25 06:54:13;;;;;;;18.20;8.10;;;6.50;99.90;;;;;;6338432;28;20297;-79
2022/03/25 06:57:19;;;;;;;12.67;8.17;;;6.60;99.90;;;;;;6338769;28;20296;-80
2022/03/25 07:00:25;;;;;;;18.63;8.70;;;6.60;99.90;;;;;;6339143;28;20305;-81
2022/03/25 07:03:34;;;;;;;15.13;8.00;;;6.60;99.90;;;;;;6337748;28;20293;-81
2022/03/25 07:06:40;;;;;;;20.47;8.30;;;6.70;99.90;;;;;;6337804;28;20346;-79
2022/03/25 07:09:47;;;;;;;20.83;8.30;;;6.80;99.90;;;;;;6339455;28;20293;-78
2022/03/25 07:12:54;;;;;;;15.47;8.03;;;6.80;99.90;;;;;;6338483;28;20289;-81
2022/03/25 07:15:59;;;;;;;14.90;8.47;;;6.90;99.90;;;;;;6322811;28;20453;-79
2022/03/25 07:19:05;;;;;;;17.83;8.53;;;7.00;99.90;;;;;;6339796;28;20294;-78
2022/03/25 07:22:13;;;;;;;12.60;8.33;;;7.10;99.90;;;;;;6339732;28;20289;-78
2022/03/25 07:25:20;;;;;;;19.17;8.17;;;7.10;99.90;;;;;;6340543;28;20437;-79
2022/03/25 07:28:26;;;;;;;16.10;7.53;;;7.10;99.90;;;;;;6339534;28;20310;-80
2022/03/25 07:31:32;;;;;;;10.82;7.88;;;7.20;99.90;;;;;;6322205;28;20285;-79
2022/03/25 07:34:39;;;;;;;16.53;8.10;;;7.20;99.90;;;;;;6339845;28;20290;-79
2022/03/25 07:37:46;;;;;;;12.73;7.53;;;7.30;99.90;;;;;;6339462;28;20583;-79
2022/03/25 07:40:51;;;;;;;14.33;8.03;;;7.30;99.90;;;;;;6339704;28;20384;-79
2022/03/25 07:43:56;;;;;;;11.90;7.90;;;7.40;99.90;;;;;;6338663;28;20289;-80
2022/03/25 07:47:01;;;;;;;15.20;7.70;;;7.50;99.90;;;;;;6338197;28;20432;-80
2022/03/25 07:50:10;;;;;;;19.60;8.38;;;7.50;99.90;;;;;;6338994;28;20291;-80
2022/03/25 07:53:17;;;;;;;19.17;7.60;;;7.60;99.90;;;;;;6336832;28;20289;-79
2022/03/25 07:56:22;;;;;;;19.08;8.13;;;7.60;99.90;;;;;;6338582;28;20476;-79
2022/03/25 07:59:30;;;;;;;11.57;7.43;;;7.80;99.90;;;;;;6337414;28;20289;-79
2022/03/25 08:02:35;;;;;;;12.73;7.97;;;7.80;99.90;;;;;;6320775;28;20285;-79
2022/03/25 08:05:43;;;;;;;14.55;7.95;;;7.80;99.90;;;;;;6338844;28;20285;-79
2022/03/25 08:08:49;;;;;;;14.15;7.80;;;7.90;99.90;;;;;;6338151;28;20449;-80
2022/03/25 08:11:54;;;;;;;16.70;8.05;;;7.90;99.90;;;;;;6338206;28;20297;-79
2022/03/25 08:15:01;;;;;;;16.83;8.13;;;7.90;99.90;;;;;;6320395;28;20455;-80
2022/03/25 08:18:10;;;;;;;17.13;8.32;;;8.00;99.90;;;;;;6337519;28;20289;-80
2022/03/25 08:21:17;;;;;;;16.52;7.60;;;8.00;99.90;;;;;;6337476;28;20294;-80
2022/03/25 08:27:51;;;;;;;13.20;8.32;;;8.10;99.90;;;;;;6336365;28;20298;-80
2022/03/25 08:30:56;;;;;;;16.27;8.38;;;8.10;99.90;;;;;;6336480;28;20311;-80
2022/03/25 08:34:01;;;;;;;15.65;8.05;;;8.10;99.90;;;;;;6318018;28;20293;-80
2022/03/25 08:37:08;;;;;;;14.73;8.48;;;8.10;99.90;;;;;;6336388;28;20291;-80
2022/03/25 08:40:14;;;;;;;14.75;8.00;;;8.20;99.90;;;;;;6336698;28;20285;-80
2022/03/25 08:43:19;;;;;;;17.77;8.25;;;8.20;99.90;;;;;;6335172;28;20290;-80
2022/03/25 08:46:25;;;;;;;16.15;8.63;;;8.30;99.90;;;;;;6318565;28;20285;-79
2022/03/25 08:49:32;;;;;;;12.35;8.25;;;8.30;99.90;;;;;;6335872;28;20293;-80
2022/03/25 08:52:39;;;;;;;15.40;8.40;;;8.20;99.90;;;;;;6336060;28;20289;-80
2022/03/25 08:55:45;;;;;;;19.08;9.15;;;8.20;99.90;;;;;;6335864;28;20286;-80
2022/03/25 08:58:54;;;;;;;12.00;7.57;;;8.20;99.90;;;;;;6336317;28;20293;-80
2022/03/25 09:01:59;;;;;;;15.25;8.77;;;8.20;99.90;;;;;;6337090;28;20469;-80
2022/03/25 09:05:06;;;;;;;18.75;9.02;;;8.20;99.90;;;;;;6337616;28;20286;-80
2022/03/25 09:08:15;;;;;;;15.35;8.85;;;8.20;99.90;;;;;;6335668;28;20301;-80
2022/03/25 09:11:22;;;;;;;23.80;9.07;;;8.20;99.90;;;;;;6336228;28;20313;-80
2022/03/25 09:14:27;;;;;;;19.17;8.93;;;8.30;99.90;;;;;;6336263;28;20293;-80
2022/03/25 09:17:33;;;;;;;20.90;9.82;;;8.40;99.90;;;;;;6336351;28;20298;-80
2022/03/25 09:20:38;;;;;;;20.05;8.63;;;8.40;99.90;;;;;;6336928;28;20289;-80
2022/03/25 09:23:45;;;;;;;21.73;8.88;;;8.40;99.90;;;;;;6336375;28;20289;-80
2022/03/25 09:26:51;;;;;;;24.38;9.13;;;8.40;99.90;;;;;;6336388;28;20298;-80
2022/03/25 09:29:56;;;;;;;16.35;8.70;;;8.50;99.90;;;;;;6335810;28;20313;-79
2022/03/25 09:33:02;;;;;;;12.95;8.73;;;8.60;99.90;;;;;;6334786;28;20448;-78
2022/03/25 09:36:12;;;;;;;20.77;9.43;;;8.70;99.90;;;;;;6335455;28;20286;-78
2022/03/25 09:39:19;;;;;;;16.10;8.80;;;8.60;99.90;;;;;;6317313;28;20284;-79
2022/03/25 09:42:24;;;;;;;17.92;9.32;;;8.70;99.90;;;;;;6333988;28;20458;-79
2022/03/25 09:45:32;;;;;;;14.65;9.70;;;8.60;99.90;;;;;;6334338;28;20369;-79
2022/03/25 09:48:37;;;;;;;19.10;9.30;;;8.70;99.90;;;;;;6333665;28;20286;-79
2022/03/25 09:52:04;;;;;;;17.13;8.85;;;8.60;99.90;;;;;;6335646;28;20293;-79
2022/03/25 09:55:14;;;;;;;15.90;8.43;;;8.70;99.90;;;;;;6341432;28;20289;-79
2022/03/25 09:58:21;;;;;;;20.23;9.15;;;8.70;99.90;;;;;;6341855;28;20278;-80
2022/03/25 10:01:27;;;;;;;19.90;9.32;;;8.70;99.90;;;;;;6340694;28;20285;-78
2022/03/25 10:04:40;;;;;;;17.75;8.98;;;8.90;99.90;;;;;;6340237;28;20289;-79
2022/03/25 10:07:47;;;;;;;23.05;8.68;;;9.00;99.90;;;;;;6341650;28;20293;-79
2022/03/25 10:10:55;;;;;;;20.63;8.68;;;9.00;99.90;;;;;;6341271;28;20573;-79
2022/03/25 10:14:15;;;;;;;18.17;8.82;;;9.00;99.90;;;;;;6341526;28;20309;-79
2022/03/25 10:17:21;;;;;;;14.52;8.68;;;9.00;99.90;;;;;;6341255;28;20297;-79
2022/03/25 10:20:28;;;;;;;12.88;8.98;;;9.10;99.90;;;;;;6314639;28;20294;-79
2022/03/25 10:23:34;;;;;;;18.23;9.27;;;9.20;99.90;;;;;;6315629;28;20290;-80
2022/03/25 10:26:41;;;;;;;16.35;9.23;;;9.30;99.90;;;;;;6316383;28;20290;-79
2022/03/25 10:29:47;;;;;;;13.68;8.73;;;9.30;99.90;;;;;;6316540;28;20286;-79
2022/03/25 10:32:52;;;;;;;14.50;8.52;;;9.40;99.90;;;;;;6315451;28;20294;-80
2022/03/25 10:36:07;;;;;;;20.27;9.15;;;9.50;99.90;;;;;;6316638;28;20285;-79
2022/03/25 10:39:16;;;;;;;12.02;8.27;;;9.60;99.90;;;;;;6315582;28;20286;-79
2022/03/25 10:42:23;;;;;;;17.83;8.68;;;9.80;99.90;;;;;;6314701;28;20290;-79
2022/03/25 10:45:29;;;;;;;24.25;8.65;;;10.00;99.90;;;;;;6316520;28;20282;-79
2022/03/25 10:48:34;;;;;;;17.77;7.88;;;10.00;99.90;;;;;;6315743;28;20285;-79
2022/03/25 10:51:41;;;;;;;17.63;9.00;;;10.00;99.90;;;;;;6309807;28;20294;-79
2022/03/25 10:54:46;;;;;;;31.55;8.60;;;10.10;99.90;;;;;;6326520;28;20290;-79
2022/03/25 10:57:55;;;;;;;20.63;8.30;;;10.10;99.70;;;;;;6315116;28;20298;-79
2022/03/25 11:01:01;;;;;;;14.50;7.72;;;10.30;99.20;;;;;;6316862;28;20291;-79
2022/03/25 11:04:09;;;;;;;14.07;7.75;;;10.30;99.40;;;;;;6298080;28;20314;-79
2022/03/25 11:07:15;;;;;;;16.83;8.23;;;10.50;98.70;;;;;;6316237;28;20287;-80
2022/03/25 11:10:21;;;;;;;10.25;7.80;;;10.50;98.60;;;;;;6317272;28;20282;-79
2022/03/25 11:13:28;;;;;;;16.67;7.40;;;10.50;98.50;;;;;;6316968;28;20297;-79
2022/03/25 11:16:35;;;;;;;16.00;7.60;;;10.70;98.00;;;;;;6333003;28;20290;-79
2022/03/25 11:19:41;;;;;;;16.15;7.50;;;10.70;97.90;;;;;;6336496;28;20313;-79
2022/03/25 11:22:52;;;;;;;14.73;7.20;;;10.80;97.60;;;;;;6342736;28;20294;-79
2022/03/25 11:26:01;;;;;;;13.35;7.07;;;10.90;97.60;;;;;;6340837;28;20290;-79
2022/03/25 11:29:11;;;;;;;7.85;6.35;;;11.00;97.30;;;;;;6339777;28;20285;-79
2022/03/25 11:32:17;;;;;;;10.93;6.90;;;10.90;97.30;;;;;;6340034;28;20289;-79
2022/03/25 11:35:24;;;;;;;10.32;6.50;;;10.90;97.80;;;;;;6322747;28;20309;-80
2022/03/25 11:38:29;;;;;;;14.32;6.80;;;11.00;97.10;;;;;;6339213;28;20293;-79
2022/03/25 11:41:35;;;;;;;10.02;6.63;;;11.20;96.60;;;;;;6340127;28;20289;-78
2022/03/25 11:44:44;;;;;;;10.48;6.78;;;11.10;96.80;;;;;;6340547;28;20286;-79
2022/03/25 11:48:37;;;;;;;14.50;7.10;;;11.20;96.70;;;;;;6339544;28;20294;-78
2022/03/25 11:51:42;;;;;;;14.75;6.22;;;11.30;96.70;;;;;;6338208;28;20285;-79
2022/03/25 11:54:48;;;;;;;9.13;6.80;;;11.30;96.80;;;;;;6338848;28;20306;-78
2022/03/25 11:58:16;;;;;;;11.07;6.50;;;11.30;96.80;;;;;;6339067;28;20313;-79
2022/03/25 12:01:43;;;;;;;11.70;6.30;;;11.40;96.70;;;;;;6340438;28;20282;-78
2022/03/25 12:04:48;;;;;;;24.90;6.60;;;11.40;97.30;;;;;;6339391;28;20297;-79
2022/03/25 12:08:28;;;;;;;11.85;6.25;;;11.60;96.70;;;;;;6339129;28;20593;-79
2022/03/25 12:11:52;;;;;;;10.50;6.15;;;11.70;96.50;;;;;;6321915;28;20285;-79
2022/03/25 12:15:13;;;;;;;9.13;6.30;;;11.80;96.10;;;;;;6339344;28;20289;-79
2022/03/25 12:18:44;;;;;;;10.07;5.82;;;11.90;96.00;;;;;;6338883;28;20288;-79
2022/03/25 12:21:50;;;;;;;17.25;5.55;;;11.90;95.70;;;;;;6338432;28;20294;-79
2022/03/25 12:24:58;;;;;;;9.98;6.00;;;12.00;95.70;;;;;;6338843;28;20294;-79
2022/03/25 12:28:04;;;;;;;8.18;5.43;;;12.10;95.70;;;;;;6338935;28;20290;-79
2022/03/25 12:31:10;;;;;;;9.63;5.70;;;12.20;95.30;;;;;;6339544;28;20309;-79
2022/03/25 12:34:17;;;;;;;14.18;5.78;;;12.20;94.70;;;;;;6339524;28;20289;-80
2022/03/25 12:37:26;;;;;;;11.13;5.47;;;12.30;95.20;;;;;;6340305;28;20282;-79
2022/03/25 12:40:33;;;;;;;8.95;5.82;;;12.40;94.90;;;;;;6340412;28;20290;-79
2022/03/25 12:43:38;;;;;;;10.10;5.57;;;12.40;95.40;;;;;;6339477;28;20454;-79
2022/03/25 12:46:44;;;;;;;5.68;5.13;;;12.40;95.40;;;;;;6340532;28;20439;-79
2022/03/25 12:49:58;;;;;;;11.25;5.65;;;12.50;94.50;;;;;;6321603;28;20302;-79
2022/03/25 12:53:04;;;;;;;9.98;5.20;;;12.40;94.70;;;;;;6339113;28;20285;-79
2022/03/25 12:56:13;;;;;;;7.97;5.43;;;12.50;94.60;;;;;;6339336;28;20593;-81
2022/03/25 12:59:28;;;;;;;10.52;5.43;;;12.50;94.80;;;;;;6338705;28;20293;-79
2022/03/25 13:02:35;;;;;;;6.75;5.35;;;12.50;94.90;;;;;;6338172;28;20298;-80
2022/03/25 13:05:42;;;;;;;8.55;5.63;;;12.50;95.00;;;;;;6338738;28;20285;-79
2022/03/25 13:09:00;;;;;;;6.05;5.47;;;12.50;95.10;;;;;;6336197;28;20476;-80
2022/03/25 13:12:07;;;;;;;15.38;5.88;;;12.50;95.10;;;;;;6337242;28;20286;-79
2022/03/25 13:15:15;;;;;;;7.47;5.70;;;12.50;95.30;;;;;;6338647;28;20386;-79
2022/03/25 13:18:20;;;;;;;21.17;6.20;;;12.40;95.40;;;;;;6338307;28;20302;-79
2022/03/25 13:21:30;;;;;;;10.02;5.63;;;12.50;95.50;;;;;;6338506;28;20468;-79
2022/03/25 13:24:52;;;;;;;11.13;5.53;;;12.40;95.30;;;;;;6304934;28;20297;-79
2022/03/25 13:27:59;;;;;;;8.27;5.20;;;12.30;95.50;;;;;;6338127;28;20298;-79
2022/03/25 13:31:06;;;;;;;6.57;5.32;;;12.30;95.60;;;;;;6339580;28;20286;-79
2022/03/25 13:34:17;;;;;;;10.13;5.30;;;12.20;95.60;;;;;;6337857;28;20301;-79
2022/03/25 13:37:27;;;;;;;8.40;5.05;;;12.20;95.50;;;;;;6338553;28;20350;-79
2022/03/25 13:40:35;;;;;;;14.02;5.50;;;12.20;95.70;;;;;;6338408;28;20298;-79
2022/03/25 13:43:42;;;;;;;9.05;5.18;;;12.10;95.70;;;;;;6339112;28;20289;-79
2022/03/25 13:46:48;;;;;;;11.93;5.53;;;12.10;96.00;;;;;;6338377;28;20298;-79
2022/03/25 13:50:16;;;;;;;10.90;5.30;;;12.10;95.90;;;;;;6338527;28;20289;-79
2022/03/25 13:53:37;;;;;;;10.50;5.35;;;12.10;95.90;;;;;;6338026;28;20283;-79
2022/03/25 13:56:45;;;;;;;5.68;5.18;;;12.00;96.00;;;;;;6338838;28;20289;-79
2022/03/25 13:59:51;;;;;;;10.18;5.28;;;12.00;96.00;;;;;;6336817;28;20293;-79
2022/03/25 14:02:56;;;;;;;12.63;5.45;;;11.90;96.00;;;;;;6337641;28;20274;-79
2022/03/25 14:06:13;;;;;;;11.88;5.00;;;11.90;96.20;;;;;;6338170;28;20456;-79
2022/03/25 14:09:31;;;;;;;9.40;5.35;;;11.80;96.40;;;;;;6338219;28;20285;-79
2022/03/25 14:12:37;;;;;;;6.60;5.40;;;11.80;96.40;;;;;;6311762;28;20286;-79
2022/03/25 14:15:42;;;;;;;11.73;5.35;;;11.70;96.50;;;;;;6311544;28;20286;-79
2022/03/25 14:19:18;;;;;;;13.73;5.25;;;11.70;96.60;;;;;;6310827;28;20290;-78
2022/03/25 14:22:23;;;;;;;9.13;4.97;;;11.80;96.80;;;;;;6311621;28;20282;-79
2022/03/25 14:25:32;;;;;;;8.05;5.32;;;11.70;96.70;;;;;;6310292;28;20298;-79
2022/03/25 14:28:38;;;;;;;8.27;4.82;;;11.80;96.60;;;;;;6311420;28;20290;-78
2022/03/25 14:31:44;;;;;;;5.10;4.70;;;11.80;96.40;;;;;;6311431;28;20282;-79
2022/03/25 14:34:50;;;;;;;10.88;4.78;;;11.80;96.60;;;;;;6284236;28;20302;-79
2022/03/25 14:37:56;;;;;;;6.68;4.50;;;11.80;96.30;;;;;;6310543;28;20577;-79
2022/03/25 14:41:03;;;;;;;9.68;4.47;;;11.80;96.50;;;;;;6312850;28;20290;-80
2022/03/25 14:44:11;;;;;;;6.90;4.50;;;11.80;96.50;;;;;;6314194;28;20282;-79
2022/03/25 14:47:17;;;;;;;6.10;4.20;;;11.80;96.20;;;;;;6313455;28;20291;-80
2022/03/25 14:50:24;;;;;;;9.35;4.55;;;11.80;96.10;;;;;;6314894;28;20286;-78
2022/03/25 14:53:29;;;;;;;4.38;4.07;;;11.80;96.00;;;;;;6316310;28;20570;-78
2022/03/25 14:56:37;;;;;;;4.30;3.97;;;11.80;96.00;;;;;;6291604;28;20302;-80
2022/03/25 14:59:43;;;;;;;4.13;3.85;;;11.80;96.00;;;;;;6316630;28;20293;-78
2022/03/25 15:02:49;;;;;;;7.57;4.38;;;11.70;95.90;;;;;;6312596;28;20294;-77
2022/03/25 15:05:54;;;;;;;7.95;4.20;;;11.70;96.00;;;;;;6315548;28;20374;-78
2022/03/25 15:09:00;;;;;;;8.50;4.13;;;11.60;96.10;;;;;;6313162;28;20282;-78
2022/03/25 15:12:09;;;;;;;9.05;4.28;;;11.60;96.20;;;;;;6338437;28;20285;-81
2022/03/25 15:15:14;;;;;;;8.80;4.43;;;11.60;96.30;;;;;;6340304;28;20298;-78
2022/03/25 15:18:20;;;;;;;7.75;3.92;;;11.50;96.70;;;;;;6340716;28;20285;-79
2022/03/25 15:21:25;;;;;;;7.93;4.13;;;11.50;96.60;;;;;;6314046;28;20298;-78
2022/03/25 15:24:30;;;;;;;8.77;4.57;;;11.50;96.80;;;;;;6312292;28;20475;-79
2022/03/25 15:27:38;;;;;;;8.45;4.72;;;11.40;96.80;;;;;;6315845;28;20278;-79
2022/03/25 15:37:49;;;;;;;8.68;4.70;;;11.30;97.60;;;;;;6314703;28;20594;-80
2022/03/25 15:40:55;;;;;;;7.28;4.15;;;11.20;97.70;;;;;;6317188;28;20290;-80
2022/03/25 15:44:01;;;;;;;4.70;4.28;;;11.20;97.80;;;;;;6313935;28;20290;-80
2022/03/25 15:47:07;;;;;;;5.55;4.38;;;11.10;97.90;;;;;;6315924;28;20286;-80
2022/03/25 15:50:13;;;;;;;5.35;4.95;;;11.10;98.00;;;;;;6315762;28;20294;-80
2022/03/25 15:53:18;;;;;;;4.95;4.50;;;11.10;98.20;;;;;;6315868;28;20290;-80
2022/03/25 15:56:24;;;;;;;9.73;4.15;;;11.00;98.20;;;;;;6316032;28;20581;-80
2022/03/25 15:59:31;;;;;;;8.05;4.65;;;11.00;98.20;;;;;;6315292;28;20290;-80
2022/03/25 16:02:37;;;;;;;6.68;4.50;;;11.00;98.40;;;;;;6315013;28;20307;-80
2022/03/25 16:05:44;;;;;;;8.43;3.83;;;10.90;98.50;;;;;;6315643;28;20282;-80
2022/03/25 16:08:49;;;;;;;11.48;4.00;;;10.90;98.60;;;;;;6315235;28;20294;-79
2022/03/25 16:12:14;;;;;;;7.43;4.13;;;10.90;98.90;;;;;;6314991;28;20283;-79
2022/03/25 16:15:21;;;;;;;4.20;3.85;;;10.80;98.40;;;;;;6313940;28;20307;-80
2022/03/25 16:18:27;;;;;;;6.97;3.40;;;10.80;98.50;;;;;;6314720;28;20290;-80
2022/03/25 16:21:35;;;;;;;4.78;3.75;;;10.80;98.50;;;;;;6335891;28;20291;-81
2022/03/25 16:24:44;;;;;;;7.93;3.90;;;10.80;98.50;;;;;;6322230;28;20286;-81